Time;durP1;ratioP1;P1;durP2;ratioP2;P2;SDS_P1;SDS_P2;PMS_P1;PMS_P2;Temp;Humidity;BMP_temperature;BMP_pressure;BME280_temperature;BME280_humidity;BME280_pressure;Samples;Min_cycle;Max_cycle;Signal;HPM_P1;HPM_P2
2022/05/25 00:00:12;;;;;;;7.08;4.83;;;;;;;16.83;89.15;99806.63;2836379;82;21066;-89
2022/05/25 00:04:17;;;;;;;6.03;3.85;;;;;;;16.84;89.35;99803.78;2826081;82;21014;-89
2022/05/25 00:08:19;;;;;;;4.67;3.25;;;;;;;16.84;88.77;99807.81;2860141;82;21541;-89
2022/05/25 00:12:21;;;;;;;8.05;4.75;;;;;;;16.79;89.62;99812.86;2793597;83;20985;-90
2022/05/25 00:16:22;;;;;;;6.67;3.67;;;;;;;16.90;90.02;99821.05;2826019;82;21080;-90
2022/05/25 00:20:24;;;;;;;10.58;3.98;;;;;;;16.95;90.15;99807.05;2840488;82;21553;-90
2022/05/25 00:24:25;;;;;;;8.40;5.22;;;;;;;17.04;90.33;99820.80;2838818;83;21037;-89
2022/05/25 00:28:26;;;;;;;7.75;3.80;;;;;;;16.91;90.78;99823.20;2801022;82;21013;-89
2022/05/25 00:32:27;;;;;;;11.28;6.17;;;;;;;16.89;91.12;99830.09;2807996;83;21060;-90
2022/05/25 00:36:29;;;;;;;8.65;5.58;;;;;;;16.98;91.45;99833.09;2834424;82;21041;-89
2022/05/25 00:40:43;;;;;;;8.23;4.85;;;;;;;17.13;91.76;99837.17;2841098;83;21041;-90
2022/05/25 00:44:44;;;;;;;12.73;5.55;;;;;;;17.26;91.56;99836.55;2847446;82;21033;-88
2022/05/25 00:48:51;;;;;;;8.70;4.78;;;;;;;17.46;91.11;99848.16;2817235;84;21117;-90
2022/05/25 00:52:53;;;;;;;4.50;3.72;;;;;;;17.56;90.61;99849.23;2792223;83;21109;-89
2022/05/25 00:56:58;;;;;;;6.15;4.95;;;;;;;17.62;90.32;99843.64;2780041;83;21086;-89
2022/05/25 01:01:00;;;;;;;8.18;5.65;;;;;;;17.67;90.49;99850.64;2815800;83;21030;-88
2022/05/25 01:05:03;;;;;;;5.40;4.87;;;;;;;17.68;90.38;99856.35;2806884;83;21097;-86
2022/05/25 01:09:15;;;;;;;7.78;4.67;;;;;;;17.50;90.60;99859.39;2817088;83;21050;-90
2022/05/25 01:13:44;;;;;;;9.03;4.72;;;;;;;17.36;91.73;99855.65;2842745;82;21636;-89
2022/05/25 01:18:03;;;;;;;6.53;5.30;;;;;;;17.39;92.17;99856.63;2814693;84;21053;-89
2022/05/25 01:22:21;;;;;;;10.80;5.75;;;;;;;17.46;91.92;99850.84;2817934;84;21141;-89
2022/05/25 01:27:08;;;;;;;7.55;4.12;;;;;;;17.60;92.00;99852.41;2820886;83;21080;-89
2022/05/25 01:31:14;;;;;;;12.60;5.03;;;;;;;17.62;91.45;99856.59;2811499;83;21057;-89
2022/05/25 01:35:49;;;;;;;10.43;5.00;;;;;;;17.68;91.79;99850.97;2780054;83;21012;-89
2022/05/25 01:40:21;;;;;;;6.53;4.60;;;;;;;17.79;91.64;99851.88;2840856;82;21033;-90
2022/05/25 01:44:34;;;;;;;7.55;4.70;;;;;;;17.87;91.62;99853.66;2752479;84;21050;-89
2022/05/25 01:48:38;;;;;;;10.78;5.60;;;;;;;17.91;90.90;99862.20;2715942;85;21089;-89
2022/05/25 01:52:49;;;;;;;6.08;5.45;;;;;;;17.79;91.67;99860.48;2722846;86;21073;-89
2022/05/25 01:56:54;;;;;;;8.28;5.90;;;;;;;17.76;91.99;99863.02;2779712;85;21051;-89
2022/05/25 02:00:59;;;;;;;9.45;6.67;;;;;;;17.74;92.33;99857.48;2731635;85;21592;-90
2022/05/25 02:05:05;;;;;;;9.43;7.25;;;;;;;17.76;92.76;99853.59;2749474;86;22067;-90
2022/05/25 02:09:40;;;;;;;6.30;5.55;;;;;;;17.80;92.38;99855.42;2658222;88;21075;-89
2022/05/25 02:14:11;;;;;;;6.08;5.12;;;;;;;17.77;91.96;99856.61;2691944;86;21114;-89
2022/05/25 02:18:35;;;;;;;7.33;5.28;;;;;;;17.73;92.06;99850.43;2736863;85;21023;-90
2022/05/25 02:22:43;;;;;;;7.10;4.45;;;;;;;17.60;92.75;99853.75;2803767;82;21110;-90
2022/05/25 02:26:50;;;;;;;8.45;4.47;;;;;;;17.53;92.48;99854.49;2807639;84;21057;-90
2022/05/25 02:30:55;;;;;;;7.22;4.40;;;;;;;17.34;92.50;99871.13;2817887;84;21081;-90
2022/05/25 02:34:58;;;;;;;;;;;;;;;17.19;93.55;99864.33;2801314;83;21054;-89
2022/05/25 02:38:59;;;;;;;7.95;6.25;;;;;;;16.97;95.04;99862.78;2791090;83;20136;-89
2022/05/25 02:43:00;;;;;;;10.72;5.53;;;;;;;16.89;95.39;99868.22;2801017;82;21074;-88
2022/05/25 02:47:01;;;;;;;8.15;4.60;;;;;;;16.98;95.84;99876.53;2806396;82;21073;-91
2022/05/25 02:51:03;;;;;;;7.75;5.20;;;;;;;17.16;95.79;99875.45;2802621;84;21133;-89
2022/05/25 02:55:05;;;;;;;6.30;5.78;;;;;;;17.32;94.88;99883.39;2840715;83;21061;-89
2022/05/25 02:59:07;;;;;;;5.08;4.65;;;;;;;17.46;94.66;99893.04;2809324;84;21065;-87
2022/05/25 03:03:08;;;;;;;6.15;5.55;;;;;;;17.49;93.41;99890.83;2830764;82;21025;-87
2022/05/25 03:07:09;;;;;;;9.95;4.72;;;;;;;17.49;93.42;99904.28;2835030;82;21057;-88
2022/05/25 03:11:11;;;;;;;7.67;4.97;;;;;;;17.58;93.62;99907.70;2827251;83;21029;-87
2022/05/25 03:15:13;;;;;;;5.55;4.87;;;;;;;17.58;92.88;99904.20;2794536;84;21085;-88
2022/05/25 03:19:14;;;;;;;6.28;5.67;;;;;;;17.63;93.33;99916.58;2841706;82;20974;-89
2022/05/25 03:23:17;;;;;;;12.33;5.22;;;;;;;17.68;93.18;99917.72;2843328;82;21065;-88
2022/05/25 03:27:18;;;;;;;6.08;4.33;;;;;;;17.76;93.18;99928.06;2794025;84;21093;-89
2022/05/25 03:31:19;;;;;;;9.20;5.40;;;;;;;17.73;93.05;99931.97;2828586;82;21006;-89
2022/05/25 03:35:21;;;;;;;9.00;5.40;;;;;;;17.64;92.92;99943.80;2843200;82;21128;-88
2022/05/25 03:39:23;;;;;;;8.65;6.03;;;;;;;17.64;93.67;99939.77;2866092;82;22196;-89
2022/05/25 03:43:34;;;;;;;6.65;5.05;;;;;;;17.76;93.67;99950.92;2821440;82;21073;-89
2022/05/25 03:47:35;;;;;;;5.78;5.15;;;;;;;17.80;92.98;99946.88;2820906;84;21307;-90
2022/05/25 03:51:36;;;;;;;5.25;4.75;;;;;;;17.80;92.71;99945.02;2819171;83;21082;-89
2022/05/25 03:55:39;;;;;;;4.45;4.05;;;;;;;17.83;92.75;99939.79;2829619;83;21031;-87
2022/05/25 03:59:39;;;;;;;5.50;4.67;;;;;;;17.80;92.72;99944.20;2829699;82;21074;-89
2022/05/25 04:03:41;;;;;;;5.65;4.37;;;;;;;17.74;93.14;99943.06;2843872;82;21053;-89
2022/05/25 04:07:45;;;;;;;5.08;4.58;;;;;;;17.76;93.27;99942.36;2810459;82;21584;-90
2022/05/25 04:11:46;;;;;;;5.83;5.25;;;;;;;17.72;93.95;99928.11;2818368;82;21014;-88
2022/05/25 04:15:47;;;;;;;5.87;5.22;;;;;;;17.49;94.70;99919.06;2800570;82;21664;-89
2022/05/25 04:19:50;;;;;;;5.47;4.45;;;;;;;17.22;96.32;99922.60;2818446;83;21033;-91
2022/05/25 04:23:51;;;;;;;5.80;4.65;;;;;;;17.07;97.04;99924.37;2821887;84;21185;-89
2022/05/25 04:27:54;;;;;;;8.75;5.03;;;;;;;17.08;97.89;99928.73;2824418;83;21707;-89
2022/05/25 04:31:55;;;;;;;7.62;5.33;;;;;;;17.02;97.92;99930.80;2821959;82;21105;-89
2022/05/25 04:35:58;;;;;;;9.05;5.45;;;;;;;17.05;98.25;99934.47;2820825;82;21026;-89
2022/05/25 04:39:59;;;;;;;6.00;5.37;;;;;;;17.04;98.40;99938.17;2820039;82;21074;-88
2022/05/25 04:44:00;;;;;;;6.15;4.78;;;;;;;17.05;98.56;99939.84;2824345;82;21058;-87
2022/05/25 04:48:03;;;;;;;4.33;3.62;;;;;;;17.20;97.95;99951.52;2842331;82;21660;-89
2022/05/25 04:52:04;;;;;;;5.47;4.60;;;;;;;17.28;97.52;99960.85;2828657;83;21014;-88
2022/05/25 05:00:25;;;;;;;6.50;4.10;;;;;;;17.40;96.21;99959.11;2811286;83;21038;-88
2022/05/25 05:04:26;;;;;;;4.33;3.52;;;;;;;17.39;95.52;99958.78;2795233;84;21131;-88
2022/05/25 05:08:28;;;;;;;9.73;4.05;;;;;;;17.32;95.15;99952.46;2811047;83;21027;-88
2022/05/25 05:12:30;;;;;;;23.95;16.90;;;;;;;17.22;94.84;99947.31;2843832;82;21018;-88
2022/05/25 05:16:32;;;;;;;19.00;16.73;;;;;;;17.12;95.04;99959.11;2822305;83;21090;-88
2022/05/25 05:20:33;;;;;;;7.97;6.10;;;;;;;17.02;96.01;99968.41;2849624;82;21565;-88
2022/05/25 05:24:34;;;;;;;5.67;4.45;;;;;;;16.95;96.87;99969.09;2804633;83;21058;-88
2022/05/25 05:28:39;;;;;;;6.70;4.25;;;;;;;16.92;97.17;99970.78;2785380;84;21073;-88
2022/05/25 05:32:40;;;;;;;3.77;3.37;;;;;;;16.94;97.32;99990.25;2838600;82;21041;-87
2022/05/25 05:36:52;;;;;;;3.37;2.90;;;;;;;16.95;97.18;99975.80;2826878;81;21041;-88
2022/05/25 05:40:53;;;;;;;4.12;3.42;;;;;;;16.97;96.53;99993.92;2803977;83;21026;-88
2022/05/25 05:45:04;;;;;;;3.45;3.15;;;;;;;16.95;96.33;99991.92;2796782;83;21102;-88
2022/05/25 05:49:06;;;;;;;4.05;2.77;;;;;;;16.94;95.93;99998.31;2823257;82;21048;-89
2022/05/25 05:53:10;;;;;;;3.12;2.45;;;;;;;16.91;95.02;99992.44;2833983;83;21053;-87
2022/05/25 05:57:13;;;;;;;3.72;3.17;;;;;;;16.85;94.69;99996.16;2864796;80;21081;-87
2022/05/25 06:01:14;;;;;;;2.75;2.27;;;;;;;16.89;94.71;100007.38;2846353;83;21034;-88
2022/05/25 06:05:16;;;;;;;3.15;2.55;;;;;;;16.93;94.95;100011.91;2817448;83;21573;-88
2022/05/25 06:09:17;;;;;;;4.42;3.15;;;;;;;16.94;95.20;100010.41;2796636;84;21093;-87
2022/05/25 06:13:19;;;;;;;2.42;2.08;;;;;;;16.98;95.49;100014.90;2823424;83;21070;-88
2022/05/25 06:21:40;;;;;;;3.75;2.65;;;;;;;17.12;94.68;100020.92;2796260;83;21085;-85
2022/05/25 06:25:41;;;;;;;3.15;2.85;;;;;;;17.18;94.55;100024.77;2780709;83;21105;-88
2022/05/25 06:29:45;;;;;;;2.77;2.35;;;;;;;17.16;94.15;100028.62;2825244;83;21046;-87
2022/05/25 06:33:46;;;;;;;3.87;2.52;;;;;;;17.25;93.92;100033.78;2819394;83;20998;-88
2022/05/25 06:37:48;;;;;;;4.90;2.47;;;;;;;17.33;93.79;100041.50;2789857;82;21090;-88
2022/05/25 06:41:49;;;;;;;3.08;2.80;;;;;;;17.29;93.19;100043.69;2767510;84;21050;-87
2022/05/25 06:45:50;;;;;;;6.35;3.05;;;;;;;17.27;92.60;100047.06;2848955;82;21060;-87
2022/05/25 06:49:53;;;;;;;3.98;2.45;;;;;;;17.32;91.96;100052.73;2809284;83;21053;-88
2022/05/25 06:53:56;;;;;;;3.85;2.90;;;;;;;17.42;92.90;100053.86;2804586;83;21085;-88
2022/05/25 06:57:57;;;;;;;2.58;2.02;;;;;;;17.52;92.30;100053.15;2800213;83;21014;-88
2022/05/25 07:01:59;;;;;;;4.35;3.45;;;;;;;17.55;91.55;100059.52;2808933;83;21775;-89
2022/05/25 07:06:06;;;;;;;2.92;2.62;;;;;;;17.57;91.88;100068.73;2861865;80;21069;-88
2022/05/25 07:10:08;;;;;;;2.30;2.10;;;;;;;17.68;92.22;100075.55;2854962;81;20991;-88
2022/05/25 07:14:10;;;;;;;1.90;1.70;;;;;;;17.79;93.52;100083.23;2798209;83;21521;-89
2022/05/25 07:18:12;;;;;;;6.75;2.55;;;;;;;17.82;90.99;100074.80;2849590;82;21133;-88
2022/05/25 07:22:13;;;;;;;7.58;2.45;;;;;;;17.47;90.46;100050.13;2855323;81;21010;-88
2022/05/25 07:26:15;;;;;;;5.53;2.87;;;;;;;17.52;91.63;100052.30;2825445;82;21084;-88
2022/05/25 07:30:17;;;;;;;2.87;2.22;;;;;;;17.45;92.33;100044.63;2797086;83;21536;-88
2022/05/25 07:34:23;;;;;;;4.47;2.33;;;;;;;17.63;92.69;100055.09;2854823;82;20954;-89
2022/05/25 07:38:27;;;;;;;5.83;2.50;;;;;;;17.79;91.30;100060.36;2820905;82;21053;-89
2022/05/25 07:42:30;;;;;;;5.55;2.55;;;;;;;17.83;89.94;100060.33;2816512;82;21039;-89
2022/05/25 07:46:31;;;;;;;3.52;2.62;;;;;;;17.92;89.98;100060.28;2800926;83;21028;-89
2022/05/25 07:50:33;;;;;;;3.83;3.52;;;;;;;18.19;90.95;100064.80;2791436;83;21077;-88
2022/05/25 07:54:34;;;;;;;4.25;3.35;;;;;;;18.50;91.17;100078.67;2768384;84;21046;-89
2022/05/25 07:58:36;;;;;;;5.80;5.20;;;;;;;18.75;89.32;100089.19;2783605;82;29824;-89
2022/05/25 08:07:07;;;;;;;4.00;3.00;;;;;;;19.32;87.47;100097.67;2798322;83;21612;-89
2022/05/25 08:11:13;;;;;;;7.35;3.58;;;;;;;19.34;85.87;100095.63;2822875;83;21093;-88
2022/05/25 08:15:15;;;;;;;;;;;;;;;19.31;85.85;100108.14;2818563;82;21631;-88
2022/05/25 08:19:16;;;;;;;3.45;3.02;;;;;;;19.29;84.04;100119.63;2807873;83;20155;-89
2022/05/25 08:23:18;;;;;;;2.90;1.90;;;;;;;19.31;83.42;100121.09;2827820;82;21006;-89
2022/05/25 08:27:19;;;;;;;4.12;3.72;;;;;;;19.34;81.69;100122.06;2814102;83;21010;-88
2022/05/25 08:31:20;;;;;;;4.55;2.77;;;;;;;19.44;82.49;100121.77;2828076;82;21070;-89
2022/05/25 08:35:21;;;;;;;3.37;2.30;;;;;;;19.46;79.91;100113.50;2829439;82;21041;-88
2022/05/25 08:39:23;;;;;;;2.65;2.40;;;;;;;19.38;81.34;100119.84;2853541;82;21538;-88
2022/05/25 08:43:43;;;;;;;2.27;1.95;;;;;;;19.35;81.95;100125.61;2752181;82;21704;-87
2022/05/25 08:47:50;;;;;;;4.10;2.62;;;;;;;19.42;82.10;100122.47;2835421;82;21097;-89
2022/05/25 08:51:55;;;;;;;4.22;2.85;;;;;;;19.51;81.00;100136.69;2814813;83;21046;-89
2022/05/25 08:56:35;;;;;;;4.43;2.13;;;;;;;19.59;82.67;100138.45;2801265;83;21038;-89
2022/05/25 09:00:36;;;;;;;3.08;2.17;;;;;;;19.69;82.55;100139.00;2843821;83;21067;-89
2022/05/25 09:05:05;;;;;;;3.50;3.20;;;;;;;19.88;80.67;100133.49;2825664;83;21054;-88
2022/05/25 09:09:18;;;;;;;6.95;4.95;;;;;;;19.90;80.53;100122.52;2818502;83;21614;-87
2022/05/25 09:13:39;;;;;;;3.62;3.42;;;;;;;19.92;79.83;100110.52;2815345;83;21555;-89
2022/05/25 09:17:54;;;;;;;3.10;2.72;;;;;;;19.88;80.59;100110.55;2815178;83;21166;-89
2022/05/25 09:22:01;;;;;;;3.75;2.42;;;;;;;19.66;81.80;100127.25;2846798;83;21042;-89
2022/05/25 09:26:03;;;;;;;5.42;3.12;;;;;;;19.62;82.78;100136.72;2822129;83;21003;-89
2022/05/25 09:30:05;;;;;;;3.92;2.85;;;;;;;19.61;83.00;100135.05;2821114;83;21062;-89
2022/05/25 09:34:12;;;;;;;2.60;2.40;;;;;;;19.61;82.25;100139.09;2815002;81;21070;-89
2022/05/25 09:38:18;;;;;;;7.05;3.52;;;;;;;19.57;85.32;100135.11;2815702;83;21558;-89
2022/05/25 09:42:21;;;;;;;3.58;3.22;;;;;;;19.61;85.49;100153.44;2813747;84;21070;-89
2022/05/25 09:46:29;;;;;;;13.53;4.42;;;;;;;19.66;84.10;100151.53;2844752;82;21557;-86
2022/05/25 09:50:36;;;;;;;3.83;3.50;;;;;;;19.67;84.67;100155.37;2824731;83;21082;-88
2022/05/25 09:54:46;;;;;;;2.52;2.35;;;;;;;19.75;84.05;100150.38;2800559;83;21070;-89
2022/05/25 09:58:52;;;;;;;3.60;3.02;;;;;;;19.89;82.10;100154.06;2823750;83;21057;-88
2022/05/25 10:03:00;;;;;;;3.42;3.12;;;;;;;20.02;81.98;100153.39;2824378;84;21570;-89
2022/05/25 10:07:16;;;;;;;3.25;2.77;;;;;;;20.14;83.99;100157.77;2828252;82;21045;-89
2022/05/25 10:11:28;;;;;;;4.45;2.27;;;;;;;20.44;81.57;100157.66;2852880;82;21030;-89
2022/05/25 10:15:36;;;;;;;3.10;2.83;;;;;;;20.52;79.57;100158.03;2819676;82;21066;-89
2022/05/25 10:19:50;;;;;;;2.58;2.37;;;;;;;20.68;81.37;100161.81;2857829;82;21064;-89
2022/05/25 10:23:53;;;;;;;4.33;3.52;;;;;;;20.84;78.88;100162.59;2831412;82;21074;-88
2022/05/25 10:27:57;;;;;;;5.47;2.72;;;;;;;20.94;79.69;100154.95;2829199;82;20995;-88
2022/05/25 10:36:45;;;;;;;2.58;2.37;;;;;;;21.11;78.03;100145.19;2857911;82;21006;-88
2022/05/25 10:40:46;;;;;;;5.17;3.22;;;;;;;21.16;76.86;100148.12;2853049;82;21914;-87
2022/05/25 10:45:18;;;;;;;2.67;1.90;;;;;;;21.26;76.73;100141.84;2830697;82;21609;-88
2022/05/25 10:49:31;;;;;;;3.25;2.77;;;;;;;21.31;76.13;100145.81;2828517;82;21739;-88
2022/05/25 10:54:44;;;;;;;2.85;2.58;;;;;;;21.28;73.44;100154.33;2843626;82;21645;-88
2022/05/25 10:58:04;;;;;;;3.33;3.02;;;;;;;21.22;76.07;100159.52;2827741;83;21022;-89
2022/05/25 11:02:31;;;;;;;3.25;2.67;;;;;;;21.12;77.33;100152.27;2814681;82;21569;-89
2022/05/25 11:06:41;;;;;;;3.08;2.77;;;;;;;21.11;76.74;100153.30;2824368;82;21090;-88
2022/05/25 11:11:22;;;;;;;5.20;3.75;;;;;;;21.05;76.87;100159.51;2856054;82;21002;-89
2022/05/25 11:16:02;;;;;;;4.15;2.98;;;;;;;21.05;77.62;100171.68;2808974;82;21054;-89
2022/05/25 11:20:12;;;;;;;5.00;2.42;;;;;;;20.99;78.17;100169.23;2813497;82;21026;-89
2022/05/25 11:24:52;;;;;;;3.90;3.58;;;;;;;20.85;79.68;100163.41;2834976;82;21943;-88
2022/05/25 11:28:59;;;;;;;6.30;3.80;;;;;;;20.73;78.63;100172.55;2826190;83;21070;-88
2022/05/25 11:33:38;;;;;;;6.50;3.98;;;;;;;20.60;79.95;100165.98;2803096;83;21077;-89
2022/05/25 11:37:53;;;;;;;5.67;4.10;;;;;;;20.61;80.93;100177.12;2821100;84;21054;-88
2022/05/25 11:42:03;;;;;;;9.10;5.03;;;;;;;20.37;81.36;100184.60;2835375;82;21620;-88
2022/05/25 11:46:38;;;;;;;11.45;5.20;;;;;;;20.08;83.39;100181.00;2816012;82;21070;-88
2022/05/25 11:51:03;;;;;;;6.10;3.75;;;;;;;19.90;84.08;100191.34;2815988;83;21110;-89
2022/05/25 11:55:13;;;;;;;4.47;3.65;;;;;;;19.81;84.36;100181.17;2840445;81;20983;-88
2022/05/25 11:59:39;;;;;;;5.95;4.15;;;;;;;20.01;85.10;100181.95;2824042;83;20999;-89
2022/05/25 12:03:45;;;;;;;6.33;5.37;;;;;;;20.03;85.18;100189.34;2817472;83;21031;-87
2022/05/25 12:08:02;;;;;;;4.22;3.83;;;;;;;20.00;84.87;100176.23;2846458;81;21066;-87
2022/05/25 12:12:12;;;;;;;4.80;4.20;;;;;;;19.96;86.08;100181.16;2818476;83;21062;-88
2022/05/25 12:16:31;;;;;;;3.72;3.12;;;;;;;19.86;85.00;100188.71;2847656;83;21024;-88
2022/05/25 12:20:41;;;;;;;5.08;4.45;;;;;;;19.47;84.65;100191.55;2815675;83;21082;-87
2022/05/25 12:24:53;;;;;;;3.75;2.87;;;;;;;19.24;87.93;100196.50;2820833;83;21064;-88
2022/05/25 12:29:21;;;;;;;6.83;4.25;;;;;;;19.07;82.82;100196.37;2825507;83;21066;-88
2022/05/25 12:33:26;;;;;;;4.05;3.75;;;;;;;18.85;84.77;100201.57;2818933;83;21039;-89
2022/05/25 12:37:38;;;;;;;4.50;4.08;;;;;;;18.76;85.75;100195.94;2815846;83;21026;-89
2022/05/25 12:41:40;;;;;;;4.70;4.10;;;;;;;18.73;87.77;100197.13;2815299;84;21082;-87
2022/05/25 12:50:50;;;;;;;8.08;5.50;;;;;;;18.62;88.85;100195.71;2797945;83;20995;-88
2022/05/25 12:54:53;;;;;;;7.17;6.08;;;;;;;18.77;88.50;100194.92;2816669;83;21030;-86
2022/05/25 12:58:57;;;;;;;4.30;3.83;;;;;;;19.00;90.07;100191.37;2819077;83;21015;-89
2022/05/25 13:03:21;;;;;;;5.03;4.00;;;;;;;19.07;85.12;100189.63;2814605;84;21049;-86
2022/05/25 13:07:40;;;;;;;4.87;3.90;;;;;;;19.32;86.28;100189.36;2815084;84;21026;-91
2022/05/25 13:11:49;;;;;;;4.70;3.58;;;;;;;19.59;85.43;100190.56;2809420;84;21050;-89
2022/05/25 13:15:51;;;;;;;5.20;3.47;;;;;;;19.87;83.16;100187.69;2815592;83;21010;-88
2022/05/25 13:19:52;;;;;;;5.08;3.35;;;;;;;20.05;81.67;100191.33;2814898;83;21577;-89
2022/05/25 13:23:58;;;;;;;5.40;2.45;;;;;;;20.20;80.38;100189.92;2814423;82;21059;-87
2022/05/25 13:28:20;;;;;;;5.03;3.83;;;;;;;20.30;79.35;100192.31;2810400;82;21023;-88
2022/05/25 13:32:57;;;;;;;3.17;2.95;;;;;;;20.25;77.40;100188.33;2809764;83;21035;-91
2022/05/25 13:37:03;;;;;;;5.05;2.35;;;;;;;20.21;80.83;100190.25;2801068;83;21042;-86
2022/05/25 13:41:15;;;;;;;3.55;2.83;;;;;;;20.27;82.75;100189.50;2802486;83;21050;-85
2022/05/25 13:45:27;;;;;;;5.55;2.83;;;;;;;20.35;81.63;100197.47;2808549;83;21153;-90
2022/05/25 13:49:35;;;;;;;3.62;2.40;;;;;;;20.41;77.52;100195.33;2821219;83;21529;-88
2022/05/25 13:53:38;;;;;;;3.45;3.08;;;;;;;20.48;78.88;100194.58;2823242;82;21038;-89
2022/05/25 13:57:59;;;;;;;3.72;2.58;;;;;;;20.45;78.69;100192.27;2811573;82;21101;-89
2022/05/25 14:02:28;;;;;;;2.22;1.57;;;;;;;20.32;78.94;100187.55;2822342;82;21052;-84
2022/05/25 14:06:29;;;;;;;6.15;1.67;;;;;;;20.11;75.87;100180.61;2775345;83;21050;-87
2022/05/25 14:14:53;;;;;;;2.10;1.40;;;;;;;20.10;78.27;100181.64;2818685;84;21690;-85
2022/05/25 14:19:05;;;;;;;2.50;1.67;;;;;;;20.12;78.18;100182.78;2792056;83;21026;-88
2022/05/25 14:23:07;;;;;;;2.15;0.80;;;;;;;20.17;78.65;100180.86;2778787;84;21018;-90
2022/05/25 14:27:32;;;;;;;2.95;1.12;;;;;;;20.45;75.58;100181.47;2833818;82;21042;-90
2022/05/25 14:31:45;;;;;;;8.50;1.85;;;;;;;20.76;77.91;100176.20;2796055;83;21073;-88
2022/05/25 14:35:54;;;;;;;5.03;1.22;;;;;;;21.10;76.83;100177.32;2839407;82;21443;-88
2022/05/25 14:40:02;;;;;;;1.92;1.40;;;;;;;21.42;76.37;100179.08;2816949;83;21049;-90
2022/05/25 14:44:04;;;;;;;1.72;1.00;;;;;;;21.61;74.40;100176.64;2794437;84;21065;-86
2022/05/25 14:48:11;;;;;;;1.27;1.17;;;;;;;21.58;71.10;100169.78;2787939;82;21085;-88
2022/05/25 14:52:17;;;;;;;1.65;0.93;;;;;;;21.54;71.43;100172.58;2815754;82;21045;-90
2022/05/25 14:56:25;;;;;;;;;;;;;;;21.53;72.97;100169.02;2805850;83;21045;-90
2022/05/25 15:00:26;;;;;;;1.98;1.35;;;;;;;21.64;72.56;100170.31;2809669;83;20121;-86
2022/05/25 15:04:37;;;;;;;1.05;0.90;;;;;;;21.69;71.19;100166.50;2808636;84;21002;-85
2022/05/25 15:08:58;;;;;;;6.25;0.85;;;;;;;21.79;70.91;100162.06;2819933;83;21058;-90
2022/05/25 15:12:59;;;;;;;3.58;0.90;;;;;;;21.95;70.48;100152.76;2802636;84;21018;-88
2022/05/25 15:21:38;;;;;;;3.22;1.20;;;;;;;22.14;69.80;100148.09;2766384;85;21041;-88
2022/05/25 15:25:43;;;;;;;1.75;1.00;;;;;;;22.25;70.82;100145.61;2799806;83;20970;-88
2022/05/25 15:29:53;;;;;;;0.70;0.70;;;;;;;22.37;69.94;100145.83;2829319;82;21093;-89
2022/05/25 15:33:51;;;;;;;3.20;1.20;;;;;;;22.43;66.58;100142.81;2781949;84;21472;-89
2022/05/25 15:37:57;;;;;;;5.33;0.78;;;;;;;22.51;65.73;100133.17;2803370;84;21095;-88
2022/05/25 15:41:58;;;;;;;;;;;;;;;22.53;66.25;100134.30;2805357;83;21039;-87
2022/05/25 15:46:05;;;;;;;1.22;1.00;;;;;;;22.59;66.74;100129.93;2803127;84;20185;-88
2022/05/25 15:50:07;;;;;;;4.37;1.10;;;;;;;22.52;63.74;100126.70;2832912;83;21105;-88
2022/05/25 15:54:08;;;;;;;1.15;0.78;;;;;;;22.49;66.03;100130.34;2834636;82;21096;-89
2022/05/25 15:58:10;;;;;;;3.15;1.25;;;;;;;22.51;65.43;100139.09;2838347;82;21038;-88
2022/05/25 16:02:14;;;;;;;1.67;0.90;;;;;;;22.34;65.03;100139.47;2840699;83;21412;-89
2022/05/25 16:06:18;;;;;;;3.02;1.32;;;;;;;22.20;65.56;100139.14;2763150;83;21600;-89
2022/05/25 16:10:21;;;;;;;3.15;0.88;;;;;;;22.03;63.46;100132.78;2830705;83;21050;-89
2022/05/25 16:14:22;;;;;;;4.03;0.80;;;;;;;21.91;66.19;100137.97;2830163;82;21050;-87
2022/05/25 16:18:24;;;;;;;1.72;1.07;;;;;;;21.80;65.35;100138.02;2783086;83;21032;-87
2022/05/25 16:22:25;;;;;;;3.22;1.62;;;;;;;21.72;66.67;100136.03;2772509;84;21054;-88
2022/05/25 16:26:26;;;;;;;1.45;0.90;;;;;;;21.72;66.49;100138.20;2831905;82;21006;-89
2022/05/25 16:30:27;;;;;;;1.20;0.98;;;;;;;21.62;68.04;100141.80;2794188;84;21022;-89
2022/05/25 16:34:29;;;;;;;2.15;1.12;;;;;;;21.41;66.99;100135.44;2801628;84;21066;-89
2022/05/25 16:38:30;;;;;;;2.75;1.15;;;;;;;21.25;68.38;100137.47;2801377;82;21025;-88
2022/05/25 16:42:31;;;;;;;4.33;1.70;;;;;;;21.09;67.93;100144.02;2841454;82;21049;-89
2022/05/25 16:46:32;;;;;;;3.45;1.92;;;;;;;20.95;68.93;100146.34;2842339;83;21045;-89
2022/05/25 16:50:34;;;;;;;2.87;0.85;;;;;;;20.81;69.67;100148.95;2822919;83;21032;-88
2022/05/25 16:54:35;;;;;;;1.72;1.10;;;;;;;20.77;69.74;100147.64;2837586;82;21125;-89
2022/05/25 16:58:36;;;;;;;4.72;1.50;;;;;;;20.69;70.41;100148.62;2809370;84;21041;-88
2022/05/25 17:02:37;;;;;;;1.32;1.12;;;;;;;20.59;70.71;100150.81;2805081;83;21054;-88
2022/05/25 17:06:38;;;;;;;3.80;1.50;;;;;;;20.49;69.69;100144.92;2790316;84;21070;-87
2022/05/25 17:10:39;;;;;;;2.42;1.60;;;;;;;20.33;70.05;100146.86;2776300;83;21034;-89
2022/05/25 17:14:41;;;;;;;2.02;1.57;;;;;;;20.23;70.55;100135.03;2794643;84;21672;-89
2022/05/25 17:23:12;;;;;;;2.15;1.47;;;;;;;19.97;71.57;100140.49;2810727;83;21058;-87
2022/05/25 17:27:14;;;;;;;1.98;1.67;;;;;;;19.84;71.62;100139.78;2804947;83;21115;-91
2022/05/25 17:31:15;;;;;;;2.83;1.50;;;;;;;19.70;72.05;100144.72;2806484;84;21010;-88
2022/05/25 17:35:18;;;;;;;1.85;1.37;;;;;;;19.55;72.61;100144.73;2759643;85;21396;-88
2022/05/25 17:43:38;;;;;;;2.40;1.35;;;;;;;19.27;73.56;100144.07;2772322;84;21026;-87
2022/05/25 17:47:39;;;;;;;1.75;1.27;;;;;;;19.16;74.46;100143.17;2773814;84;21058;-89
2022/05/25 17:51:43;;;;;;;3.12;1.57;;;;;;;19.09;75.13;100145.28;2772802;83;21070;-90
2022/05/25 17:55:44;;;;;;;4.62;2.25;;;;;;;19.06;75.72;100145.66;2770120;84;20986;-89
2022/05/25 17:59:46;;;;;;;6.75;2.22;;;;;;;19.04;76.13;100146.84;2792085;83;20994;-88
2022/05/25 18:03:47;;;;;;;2.70;2.10;;;;;;;19.03;76.25;100147.38;2819366;83;21038;-90
2022/05/25 18:07:50;;;;;;;2.65;2.45;;;;;;;19.03;76.59;100146.03;2816371;83;21037;-90
2022/05/25 18:11:53;;;;;;;5.85;2.85;;;;;;;18.98;76.98;100149.27;2810667;83;21017;-89
2022/05/25 18:15:55;;;;;;;1.92;1.65;;;;;;;18.92;77.42;100143.73;2818237;83;21018;-91
2022/05/25 18:19:57;;;;;;;4.62;2.10;;;;;;;18.84;77.64;100146.00;2796220;83;21013;-88
2022/05/25 18:23:58;;;;;;;4.15;1.50;;;;;;;18.82;77.85;100148.05;2771342;84;21009;-88
2022/05/25 18:28:01;;;;;;;5.87;2.95;;;;;;;18.81;77.87;100151.77;2816028;83;21017;-89
2022/05/25 18:32:03;;;;;;;3.58;2.72;;;;;;;18.71;78.40;100150.68;2815786;83;21028;-86
2022/05/25 18:36:29;;;;;;;3.37;2.80;;;;;;;18.62;78.47;100151.78;2815405;83;21022;-87
2022/05/25 18:40:31;;;;;;;5.20;3.85;;;;;;;18.53;78.74;100157.75;2774303;84;21065;-88
2022/05/25 18:44:32;;;;;;;3.52;2.12;;;;;;;18.40;78.89;100160.53;2776991;83;21137;-90
2022/05/25 18:48:36;;;;;;;4.00;2.10;;;;;;;18.29;79.03;100168.20;2795884;83;21048;-90
2022/05/25 18:52:37;;;;;;;5.25;3.62;;;;;;;18.19;79.38;100169.78;2832164;82;21025;-90
2022/05/25 18:56:38;;;;;;;4.08;2.83;;;;;;;18.05;79.78;100160.63;2823964;82;20989;-92
2022/05/25 19:00:40;;;;;;;4.62;4.12;;;;;;;17.92;80.11;100170.08;2798050;83;21049;-92
2022/05/25 19:04:41;;;;;;;7.20;4.10;;;;;;;17.80;80.43;100178.23;2835587;82;21028;-88
2022/05/25 19:08:43;;;;;;;6.28;4.42;;;;;;;17.72;80.71;100178.27;2835602;82;21387;-91
2022/05/25 19:12:44;;;;;;;7.53;3.80;;;;;;;17.61;80.75;100187.55;2821150;82;21056;-91
2022/05/25 19:16:47;;;;;;;4.28;3.37;;;;;;;17.52;80.96;100198.36;2769545;84;21052;-91
2022/05/25 19:20:48;;;;;;;4.95;4.42;;;;;;;17.45;81.07;100200.05;2813465;83;21054;-90
2022/05/25 19:24:54;;;;;;;6.25;5.03;;;;;;;17.39;81.17;100203.44;2815143;84;21035;-92
2022/05/25 19:28:57;;;;;;;9.43;5.53;;;;;;;17.32;81.26;100209.17;2830765;82;21061;-90
2022/05/25 19:32:59;;;;;;;8.18;6.72;;;;;;;17.17;81.62;100208.53;2798909;83;21121;-90
2022/05/25 19:37:01;;;;;;;6.22;5.25;;;;;;;17.08;81.89;100214.91;2781132;83;21050;-91
2022/05/25 19:41:04;;;;;;;6.22;4.40;;;;;;;17.03;82.09;100221.31;2820536;83;21581;-88
2022/05/25 19:45:09;;;;;;;4.17;2.92;;;;;;;17.03;81.96;100232.06;2848120;82;21070;-93
2022/05/25 19:49:12;;;;;;;3.80;3.33;;;;;;;17.01;81.66;100234.08;2806992;82;21089;-91
2022/05/25 19:53:13;;;;;;;7.20;3.30;;;;;;;16.89;81.63;100233.03;2767465;85;21592;-93